sensor_id;sensor_type;location;lat;lon;timestamp;P1;durP1;ratioP1;P2;durP2;ratioP2
10389;SDS011;5241;47.830;12.972;2022-10-30T00:02:25;11.73;;;4.00;;
10389;SDS011;5241;47.830;12.972;2022-10-30T00:04:50;8.43;;;3.73;;
10389;SDS011;5241;47.830;12.972;2022-10-30T00:07:16;10.23;;;3.63;;
10389;SDS011;5241;47.830;12.972;2022-10-30T00:09:41;12.00;;;3.40;;
10389;SDS011;5241;47.830;12.972;2022-10-30T00:12:07;8.40;;;3.07;;
10389;SDS011;5241;47.830;12.972;2022-10-30T00:14:32;9.37;;;3.17;;
10389;SDS011;5241;47.830;12.972;2022-10-30T00:16:58;11.60;;;3.63;;
10389;SDS011;5241;47.830;12.972;2022-10-30T00:19:23;10.47;;;3.43;;
10389;SDS011;5241;47.830;12.972;2022-10-30T00:21:49;11.87;;;3.50;;
10389;SDS011;5241;47.830;12.972;2022-10-30T00:24:15;11.70;;;3.90;;
10389;SDS011;5241;47.830;12.972;2022-10-30T00:26:40;8.73;;;3.47;;
10389;SDS011;5241;47.830;12.972;2022-10-30T00:29:06;9.30;;;3.67;;
10389;SDS011;5241;47.830;12.972;2022-10-30T00:31:31;9.90;;;3.40;;
10389;SDS011;5241;47.830;12.972;2022-10-30T00:33:57;14.07;;;3.83;;
10389;SDS011;5241;47.830;12.972;2022-10-30T00:36:23;6.93;;;2.80;;
10389;SDS011;5241;47.830;12.972;2022-10-30T00:38:48;9.20;;;3.30;;
10389;SDS011;5241;47.830;12.972;2022-10-30T00:41:14;10.67;;;3.30;;
10389;SDS011;5241;47.830;12.972;2022-10-30T00:43:45;10.40;;;2.97;;
10389;SDS011;5241;47.830;12.972;2022-10-30T00:49:03;11.97;;;3.57;;
10389;SDS011;5241;47.830;12.972;2022-10-30T00:51:34;8.43;;;3.20;;
10389;SDS011;5241;47.830;12.972;2022-10-30T00:54:03;7.07;;;3.27;;
10389;SDS011;5241;47.830;12.972;2022-10-30T00:56:29;17.10;;;3.57;;
10389;SDS011;5241;47.830;12.972;2022-10-30T00:58:57;7.37;;;3.03;;
10389;SDS011;5241;47.830;12.972;2022-10-30T01:01:26;10.00;;;3.33;;
10389;SDS011;5241;47.830;12.972;2022-10-30T01:03:57;14.47;;;3.77;;
10389;SDS011;5241;47.830;12.972;2022-10-30T01:06:24;14.43;;;3.87;;
10389;SDS011;5241;47.830;12.972;2022-10-30T01:08:52;11.07;;;3.20;;
10389;SDS011;5241;47.830;12.972;2022-10-30T01:11:19;13.87;;;3.83;;
10389;SDS011;5241;47.830;12.972;2022-10-30T01:13:45;13.17;;;3.40;;
10389;SDS011;5241;47.830;12.972;2022-10-30T01:27:06;10.27;;;2.90;;
10389;SDS011;5241;47.830;12.972;2022-10-30T01:34:58;9.57;;;3.23;;
10389;SDS011;5241;47.830;12.972;2022-10-30T01:37:40;8.47;;;3.33;;
10389;SDS011;5241;47.830;12.972;2022-10-30T01:40:12;12.37;;;3.40;;
10389;SDS011;5241;47.830;12.972;2022-10-30T01:45:42;10.03;;;3.23;;
10389;SDS011;5241;47.830;12.972;2022-10-30T01:51:21;9.73;;;3.57;;
10389;SDS011;5241;47.830;12.972;2022-10-30T01:56:35;11.00;;;3.60;;
10389;SDS011;5241;47.830;12.972;2022-10-30T01:59:20;7.93;;;3.37;;
10389;SDS011;5241;47.830;12.972;2022-10-30T02:01:55;7.17;;;2.70;;
10389;SDS011;5241;47.830;12.972;2022-10-30T02:04:22;10.30;;;2.97;;
10389;SDS011;5241;47.830;12.972;2022-10-30T02:06:48;8.70;;;3.20;;
10389;SDS011;5241;47.830;12.972;2022-10-30T02:09:15;11.47;;;3.73;;
10389;SDS011;5241;47.830;12.972;2022-10-30T02:11:41;7.37;;;3.40;;
10389;SDS011;5241;47.830;12.972;2022-10-30T02:14:09;6.87;;;2.87;;
10389;SDS011;5241;47.830;12.972;2022-10-30T02:16:38;8.07;;;3.20;;
10389;SDS011;5241;47.830;12.972;2022-10-30T02:19:09;8.90;;;3.07;;
10389;SDS011;5241;47.830;12.972;2022-10-30T02:21:35;11.80;;;3.43;;
10389;SDS011;5241;47.830;12.972;2022-10-30T02:24:01;7.70;;;3.43;;
10389;SDS011;5241;47.830;12.972;2022-10-30T02:26:26;9.80;;;3.20;;
10389;SDS011;5241;47.830;12.972;2022-10-30T02:28:52;8.90;;;2.97;;
10389;SDS011;5241;47.830;12.972;2022-10-30T02:31:17;10.00;;;3.23;;
10389;SDS011;5241;47.830;12.972;2022-10-30T02:33:45;9.60;;;3.43;;
10389;SDS011;5241;47.830;12.972;2022-10-30T02:36:10;6.37;;;2.87;;
10389;SDS011;5241;47.830;12.972;2022-10-30T02:38:39;12.80;;;3.27;;
10389;SDS011;5241;47.830;12.972;2022-10-30T02:41:05;10.17;;;2.83;;
10389;SDS011;5241;47.830;12.972;2022-10-30T02:43:30;11.83;;;3.40;;
10389;SDS011;5241;47.830;12.972;2022-10-30T02:45:56;7.87;;;2.93;;
10389;SDS011;5241;47.830;12.972;2022-10-30T02:48:21;11.50;;;3.43;;
10389;SDS011;5241;47.830;12.972;2022-10-30T02:50:47;9.40;;;3.33;;
10389;SDS011;5241;47.830;12.972;2022-10-30T02:53:13;9.63;;;3.47;;
10389;SDS011;5241;47.830;12.972;2022-10-30T02:55:38;7.97;;;3.30;;
10389;SDS011;5241;47.830;12.972;2022-10-30T02:58:04;8.10;;;3.07;;
10389;SDS011;5241;47.830;12.972;2022-10-30T03:00:29;9.27;;;3.80;;
10389;SDS011;5241;47.830;12.972;2022-10-30T03:02:55;12.40;;;3.70;;
10389;SDS011;5241;47.830;12.972;2022-10-30T03:05:21;10.00;;;3.37;;
10389;SDS011;5241;47.830;12.972;2022-10-30T03:07:47;9.27;;;3.33;;
10389;SDS011;5241;47.830;12.972;2022-10-30T03:10:13;8.30;;;3.03;;
10389;SDS011;5241;47.830;12.972;2022-10-30T03:12:39;9.63;;;3.50;;
10389;SDS011;5241;47.830;12.972;2022-10-30T03:15:05;8.20;;;3.07;;
10389;SDS011;5241;47.830;12.972;2022-10-30T03:17:30;5.50;;;3.07;;
10389;SDS011;5241;47.830;12.972;2022-10-30T03:19:56;11.30;;;3.43;;
10389;SDS011;5241;47.830;12.972;2022-10-30T03:22:22;8.73;;;3.07;;
10389;SDS011;5241;47.830;12.972;2022-10-30T03:24:47;11.27;;;3.57;;
10389;SDS011;5241;47.830;12.972;2022-10-30T03:27:13;9.63;;;2.87;;
10389;SDS011;5241;47.830;12.972;2022-10-30T03:29:38;10.10;;;3.37;;
10389;SDS011;5241;47.830;12.972;2022-10-30T03:32:07;8.93;;;2.90;;
10389;SDS011;5241;47.830;12.972;2022-10-30T03:34:34;10.90;;;3.33;;
10389;SDS011;5241;47.830;12.972;2022-10-30T03:37:00;6.93;;;2.97;;
10389;SDS011;5241;47.830;12.972;2022-10-30T03:39:25;14.20;;;3.23;;
10389;SDS011;5241;47.830;12.972;2022-10-30T03:41:51;10.50;;;3.10;;
10389;SDS011;5241;47.830;12.972;2022-10-30T03:44:17;7.60;;;2.97;;
10389;SDS011;5241;47.830;12.972;2022-10-30T03:46:42;7.60;;;3.00;;
10389;SDS011;5241;47.830;12.972;2022-10-30T03:49:08;14.50;;;3.07;;
10389;SDS011;5241;47.830;12.972;2022-10-30T03:51:33;10.43;;;3.20;;
10389;SDS011;5241;47.830;12.972;2022-10-30T03:53:59;11.93;;;3.40;;
10389;SDS011;5241;47.830;12.972;2022-10-30T03:56:24;13.63;;;3.40;;
10389;SDS011;5241;47.830;12.972;2022-10-30T03:58:50;10.20;;;3.50;;
10389;SDS011;5241;47.830;12.972;2022-10-30T04:01:15;7.13;;;3.33;;
10389;SDS011;5241;47.830;12.972;2022-10-30T04:03:41;10.10;;;3.43;;
10389;SDS011;5241;47.830;12.972;2022-10-30T04:06:07;10.53;;;2.70;;
10389;SDS011;5241;47.830;12.972;2022-10-30T04:08:32;10.93;;;3.60;;
10389;SDS011;5241;47.830;12.972;2022-10-30T04:10:58;10.17;;;3.30;;
10389;SDS011;5241;47.830;12.972;2022-10-30T04:13:24;12.40;;;3.50;;
10389;SDS011;5241;47.830;12.972;2022-10-30T04:15:49;9.13;;;3.30;;
10389;SDS011;5241;47.830;12.972;2022-10-30T04:18:15;7.70;;;3.00;;
10389;SDS011;5241;47.830;12.972;2022-10-30T04:20:43;14.33;;;3.40;;
10389;SDS011;5241;47.830;12.972;2022-10-30T04:23:11;10.80;;;3.63;;
10389;SDS011;5241;47.830;12.972;2022-10-30T04:25:38;11.00;;;3.87;;
10389;SDS011;5241;47.830;12.972;2022-10-30T04:28:04;8.30;;;2.60;;
10389;SDS011;5241;47.830;12.972;2022-10-30T04:30:30;9.47;;;3.00;;
10389;SDS011;5241;47.830;12.972;2022-10-30T04:33:01;9.67;;;3.07;;
10389;SDS011;5241;47.830;12.972;2022-10-30T04:35:29;7.13;;;2.77;;
10389;SDS011;5241;47.830;12.972;2022-10-30T04:37:56;9.23;;;3.30;;
10389;SDS011;5241;47.830;12.972;2022-10-30T04:40:24;13.43;;;3.33;;
10389;SDS011;5241;47.830;12.972;2022-10-30T04:42:51;5.30;;;2.93;;
10389;SDS011;5241;47.830;12.972;2022-10-30T04:45:17;8.57;;;3.07;;
10389;SDS011;5241;47.830;12.972;2022-10-30T04:47:43;11.23;;;2.57;;
10389;SDS011;5241;47.830;12.972;2022-10-30T04:50:09;10.73;;;3.20;;
10389;SDS011;5241;47.830;12.972;2022-10-30T04:52:35;10.90;;;3.27;;
10389;SDS011;5241;47.830;12.972;2022-10-30T04:55:01;9.23;;;2.90;;
10389;SDS011;5241;47.830;12.972;2022-10-30T04:57:27;6.77;;;3.00;;
10389;SDS011;5241;47.830;12.972;2022-10-30T04:59:52;7.50;;;3.03;;
10389;SDS011;5241;47.830;12.972;2022-10-30T05:02:18;7.20;;;2.83;;
10389;SDS011;5241;47.830;12.972;2022-10-30T05:04:44;12.03;;;4.00;;
10389;SDS011;5241;47.830;12.972;2022-10-30T05:07:10;9.20;;;3.50;;
10389;SDS011;5241;47.830;12.972;2022-10-30T05:09:36;10.73;;;3.40;;
10389;SDS011;5241;47.830;12.972;2022-10-30T05:12:02;7.93;;;2.77;;
10389;SDS011;5241;47.830;12.972;2022-10-30T05:14:29;9.50;;;3.53;;
10389;SDS011;5241;47.830;12.972;2022-10-30T05:16:55;9.23;;;3.23;;
10389;SDS011;5241;47.830;12.972;2022-10-30T05:19:21;8.97;;;3.23;;
10389;SDS011;5241;47.830;12.972;2022-10-30T05:21:46;10.23;;;3.53;;
10389;SDS011;5241;47.830;12.972;2022-10-30T05:24:12;10.50;;;3.00;;
10389;SDS011;5241;47.830;12.972;2022-10-30T05:26:37;14.27;;;3.70;;
10389;SDS011;5241;47.830;12.972;2022-10-30T05:29:03;10.27;;;2.90;;
10389;SDS011;5241;47.830;12.972;2022-10-30T05:31:28;9.80;;;3.10;;
10389;SDS011;5241;47.830;12.972;2022-10-30T05:33:54;8.57;;;2.93;;
10389;SDS011;5241;47.830;12.972;2022-10-30T05:36:20;13.27;;;3.13;;
10389;SDS011;5241;47.830;12.972;2022-10-30T05:38:45;8.57;;;3.00;;
10389;SDS011;5241;47.830;12.972;2022-10-30T05:41:11;8.50;;;3.60;;
10389;SDS011;5241;47.830;12.972;2022-10-30T05:43:37;12.27;;;3.57;;
10389;SDS011;5241;47.830;12.972;2022-10-30T05:46:02;8.93;;;3.10;;
10389;SDS011;5241;47.830;12.972;2022-10-30T05:48:28;8.43;;;2.93;;
10389;SDS011;5241;47.830;12.972;2022-10-30T05:50:54;8.83;;;2.67;;
10389;SDS011;5241;47.830;12.972;2022-10-30T05:53:20;9.07;;;2.73;;
10389;SDS011;5241;47.830;12.972;2022-10-30T05:55:46;10.87;;;3.20;;
10389;SDS011;5241;47.830;12.972;2022-10-30T05:58:11;5.17;;;2.63;;
10389;SDS011;5241;47.830;12.972;2022-10-30T06:00:37;9.67;;;3.40;;
10389;SDS011;5241;47.830;12.972;2022-10-30T06:03:05;8.77;;;2.67;;
10389;SDS011;5241;47.830;12.972;2022-10-30T06:05:34;11.20;;;2.90;;
10389;SDS011;5241;47.830;12.972;2022-10-30T06:08:01;10.57;;;3.10;;
10389;SDS011;5241;47.830;12.972;2022-10-30T06:10:27;8.23;;;3.53;;
10389;SDS011;5241;47.830;12.972;2022-10-30T06:12:58;11.33;;;2.80;;
10389;SDS011;5241;47.830;12.972;2022-10-30T06:15:25;9.80;;;3.67;;
10389;SDS011;5241;47.830;12.972;2022-10-30T06:17:51;7.77;;;2.90;;
10389;SDS011;5241;47.830;12.972;2022-10-30T06:20:18;8.83;;;3.27;;
10389;SDS011;5241;47.830;12.972;2022-10-30T06:22:54;8.13;;;2.97;;
10389;SDS011;5241;47.830;12.972;2022-10-30T06:25:24;7.53;;;2.87;;
10389;SDS011;5241;47.830;12.972;2022-10-30T06:27:50;9.27;;;3.23;;
10389;SDS011;5241;47.830;12.972;2022-10-30T06:30:16;12.30;;;3.00;;
10389;SDS011;5241;47.830;12.972;2022-10-30T06:32:43;7.93;;;2.70;;
10389;SDS011;5241;47.830;12.972;2022-10-30T06:35:08;11.00;;;3.17;;
10389;SDS011;5241;47.830;12.972;2022-10-30T06:37:34;7.40;;;2.80;;
10389;SDS011;5241;47.830;12.972;2022-10-30T06:39:59;8.53;;;3.10;;
10389;SDS011;5241;47.830;12.972;2022-10-30T06:42:25;10.47;;;3.43;;
10389;SDS011;5241;47.830;12.972;2022-10-30T06:44:51;9.50;;;3.37;;
10389;SDS011;5241;47.830;12.972;2022-10-30T06:47:16;9.93;;;3.10;;
10389;SDS011;5241;47.830;12.972;2022-10-30T06:49:42;10.03;;;3.00;;
10389;SDS011;5241;47.830;12.972;2022-10-30T06:52:07;7.10;;;2.90;;
10389;SDS011;5241;47.830;12.972;2022-10-30T06:54:33;9.57;;;3.37;;
10389;SDS011;5241;47.830;12.972;2022-10-30T06:56:59;7.00;;;3.10;;
10389;SDS011;5241;47.830;12.972;2022-10-30T06:59:24;9.23;;;3.37;;
10389;SDS011;5241;47.830;12.972;2022-10-30T07:01:50;9.10;;;3.40;;
10389;SDS011;5241;47.830;12.972;2022-10-30T07:04:15;10.23;;;3.07;;
10389;SDS011;5241;47.830;12.972;2022-10-30T07:06:41;9.90;;;3.23;;
10389;SDS011;5241;47.830;12.972;2022-10-30T07:09:07;11.40;;;2.97;;
10389;SDS011;5241;47.830;12.972;2022-10-30T07:11:32;9.43;;;3.40;;
10389;SDS011;5241;47.830;12.972;2022-10-30T07:13:58;7.20;;;3.07;;
10389;SDS011;5241;47.830;12.972;2022-10-30T07:16:23;6.77;;;3.10;;
10389;SDS011;5241;47.830;12.972;2022-10-30T07:18:49;9.80;;;3.30;;
10389;SDS011;5241;47.830;12.972;2022-10-30T07:21:15;10.43;;;3.40;;
10389;SDS011;5241;47.830;12.972;2022-10-30T07:23:41;6.90;;;3.00;;
10389;SDS011;5241;47.830;12.972;2022-10-30T07:26:07;11.00;;;2.97;;
10389;SDS011;5241;47.830;12.972;2022-10-30T07:28:32;8.90;;;2.97;;
10389;SDS011;5241;47.830;12.972;2022-10-30T07:30:58;12.67;;;3.23;;
10389;SDS011;5241;47.830;12.972;2022-10-30T07:33:23;10.33;;;3.90;;
10389;SDS011;5241;47.830;12.972;2022-10-30T07:35:49;7.70;;;3.60;;
10389;SDS011;5241;47.830;12.972;2022-10-30T07:38:15;10.87;;;4.20;;
10389;SDS011;5241;47.830;12.972;2022-10-30T07:40:41;9.23;;;3.87;;
10389;SDS011;5241;47.830;12.972;2022-10-30T07:43:07;7.83;;;3.67;;
10389;SDS011;5241;47.830;12.972;2022-10-30T07:45:37;9.07;;;3.47;;
10389;SDS011;5241;47.830;12.972;2022-10-30T07:48:03;10.80;;;3.37;;
10389;SDS011;5241;47.830;12.972;2022-10-30T07:50:28;10.37;;;3.83;;
10389;SDS011;5241;47.830;12.972;2022-10-30T07:52:54;8.07;;;4.17;;
10389;SDS011;5241;47.830;12.972;2022-10-30T07:55:19;12.97;;;4.50;;
10389;SDS011;5241;47.830;12.972;2022-10-30T07:57:45;12.23;;;5.07;;
10389;SDS011;5241;47.830;12.972;2022-10-30T08:00:11;13.47;;;5.30;;
10389;SDS011;5241;47.830;12.972;2022-10-30T08:02:38;17.03;;;6.67;;
10389;SDS011;5241;47.830;12.972;2022-10-30T08:05:04;16.53;;;6.90;;
10389;SDS011;5241;47.830;12.972;2022-10-30T08:07:31;12.93;;;5.23;;
10389;SDS011;5241;47.830;12.972;2022-10-30T08:10:00;11.80;;;4.50;;
10389;SDS011;5241;47.830;12.972;2022-10-30T08:12:26;8.60;;;4.07;;
10389;SDS011;5241;47.830;12.972;2022-10-30T08:14:52;10.00;;;3.77;;
10389;SDS011;5241;47.830;12.972;2022-10-30T08:17:18;9.53;;;3.93;;
10389;SDS011;5241;47.830;12.972;2022-10-30T08:19:44;11.40;;;4.33;;
10389;SDS011;5241;47.830;12.972;2022-10-30T08:22:10;8.37;;;4.20;;
10389;SDS011;5241;47.830;12.972;2022-10-30T08:24:36;7.47;;;4.17;;
10389;SDS011;5241;47.830;12.972;2022-10-30T08:27:01;11.67;;;4.13;;
10389;SDS011;5241;47.830;12.972;2022-10-30T08:29:27;14.90;;;4.93;;
10389;SDS011;5241;47.830;12.972;2022-10-30T08:31:53;10.87;;;3.70;;
10389;SDS011;5241;47.830;12.972;2022-10-30T08:34:19;11.17;;;4.07;;
10389;SDS011;5241;47.830;12.972;2022-10-30T08:36:47;14.10;;;3.97;;
10389;SDS011;5241;47.830;12.972;2022-10-30T08:39:13;8.97;;;3.67;;
10389;SDS011;5241;47.830;12.972;2022-10-30T08:41:39;9.37;;;3.83;;
10389;SDS011;5241;47.830;12.972;2022-10-30T08:44:05;9.30;;;3.97;;
10389;SDS011;5241;47.830;12.972;2022-10-30T08:46:30;9.43;;;3.90;;
10389;SDS011;5241;47.830;12.972;2022-10-30T08:48:56;10.70;;;3.27;;
10389;SDS011;5241;47.830;12.972;2022-10-30T08:51:22;10.67;;;3.50;;
10389;SDS011;5241;47.830;12.972;2022-10-30T08:53:47;12.17;;;3.43;;
10389;SDS011;5241;47.830;12.972;2022-10-30T08:56:16;8.30;;;3.10;;
10389;SDS011;5241;47.830;12.972;2022-10-30T08:58:42;10.57;;;3.20;;
10389;SDS011;5241;47.830;12.972;2022-10-30T09:01:07;8.30;;;3.20;;
10389;SDS011;5241;47.830;12.972;2022-10-30T09:03:33;9.07;;;3.40;;
10389;SDS011;5241;47.830;12.972;2022-10-30T09:05:59;9.57;;;3.30;;
10389;SDS011;5241;47.830;12.972;2022-10-30T09:08:25;9.17;;;3.53;;
10389;SDS011;5241;47.830;12.972;2022-10-30T09:10:57;12.30;;;3.10;;
10389;SDS011;5241;47.830;12.972;2022-10-30T09:13:24;10.73;;;3.20;;
10389;SDS011;5241;47.830;12.972;2022-10-30T09:15:49;9.27;;;2.97;;
10389;SDS011;5241;47.830;12.972;2022-10-30T09:18:15;6.80;;;2.97;;
10389;SDS011;5241;47.830;12.972;2022-10-30T09:20:41;13.40;;;3.50;;
10389;SDS011;5241;47.830;12.972;2022-10-30T09:23:06;12.03;;;3.50;;
10389;SDS011;5241;47.830;12.972;2022-10-30T09:25:32;10.47;;;3.60;;
10389;SDS011;5241;47.830;12.972;2022-10-30T09:27:58;9.13;;;3.70;;
10389;SDS011;5241;47.830;12.972;2022-10-30T09:30:23;9.43;;;3.57;;
10389;SDS011;5241;47.830;12.972;2022-10-30T09:32:59;11.20;;;3.30;;
10389;SDS011;5241;47.830;12.972;2022-10-30T09:35:29;10.50;;;3.30;;
10389;SDS011;5241;47.830;12.972;2022-10-30T09:37:56;10.93;;;3.40;;
10389;SDS011;5241;47.830;12.972;2022-10-30T09:40:35;11.10;;;3.37;;
10389;SDS011;5241;47.830;12.972;2022-10-30T09:43:37;12.53;;;3.50;;
10389;SDS011;5241;47.830;12.972;2022-10-30T09:46:12;11.93;;;3.70;;
10389;SDS011;5241;47.830;12.972;2022-10-30T09:51:48;16.20;;;3.83;;
10389;SDS011;5241;47.830;12.972;2022-10-30T09:56:44;9.23;;;3.93;;
10389;SDS011;5241;47.830;12.972;2022-10-30T09:59:38;11.07;;;3.30;;
10389;SDS011;5241;47.830;12.972;2022-10-30T10:02:23;10.77;;;3.60;;
10389;SDS011;5241;47.830;12.972;2022-10-30T10:07:49;8.30;;;3.50;;
10389;SDS011;5241;47.830;12.972;2022-10-30T10:13:04;12.17;;;3.50;;
10389;SDS011;5241;47.830;12.972;2022-10-30T10:15:40;9.00;;;3.50;;
10389;SDS011;5241;47.830;12.972;2022-10-30T10:18:20;9.47;;;3.10;;
10389;SDS011;5241;47.830;12.972;2022-10-30T10:20:50;10.27;;;3.73;;
10389;SDS011;5241;47.830;12.972;2022-10-30T10:23:25;16.40;;;3.90;;
10389;SDS011;5241;47.830;12.972;2022-10-30T10:25:57;9.07;;;3.60;;
10389;SDS011;5241;47.830;12.972;2022-10-30T10:31:23;10.27;;;3.87;;
10389;SDS011;5241;47.830;12.972;2022-10-30T10:36:42;10.20;;;3.60;;
10389;SDS011;5241;47.830;12.972;2022-10-30T10:50:48;10.43;;;3.60;;
10389;SDS011;5241;47.830;12.972;2022-10-30T10:53:26;16.13;;;3.80;;
10389;SDS011;5241;47.830;12.972;2022-10-30T10:55:55;8.83;;;3.33;;
10389;SDS011;5241;47.830;12.972;2022-10-30T10:58:28;11.97;;;4.07;;
10389;SDS011;5241;47.830;12.972;2022-10-30T11:00:57;10.93;;;3.80;;
10389;SDS011;5241;47.830;12.972;2022-10-30T11:03:25;11.97;;;4.00;;
10389;SDS011;5241;47.830;12.972;2022-10-30T11:06:27;12.07;;;3.83;;
10389;SDS011;5241;47.830;12.972;2022-10-30T11:09:11;10.50;;;3.83;;
10389;SDS011;5241;47.830;12.972;2022-10-30T11:11:40;9.03;;;3.83;;
10389;SDS011;5241;47.830;12.972;2022-10-30T11:14:28;10.63;;;3.77;;
10389;SDS011;5241;47.830;12.972;2022-10-30T11:19:37;7.93;;;3.57;;
10389;SDS011;5241;47.830;12.972;2022-10-30T11:22:03;8.63;;;3.70;;
10389;SDS011;5241;47.830;12.972;2022-10-30T11:27:46;7.20;;;3.33;;
10389;SDS011;5241;47.830;12.972;2022-10-30T11:30:20;12.47;;;4.30;;
10389;SDS011;5241;47.830;12.972;2022-10-30T11:32:48;10.77;;;3.57;;
10389;SDS011;5241;47.830;12.972;2022-10-30T11:35:15;11.47;;;3.97;;
10389;SDS011;5241;47.830;12.972;2022-10-30T11:37:43;12.30;;;3.77;;
10389;SDS011;5241;47.830;12.972;2022-10-30T11:42:37;11.57;;;4.07;;
10389;SDS011;5241;47.830;12.972;2022-10-30T11:45:10;8.03;;;3.40;;
10389;SDS011;5241;47.830;12.972;2022-10-30T11:47:40;8.83;;;3.50;;
10389;SDS011;5241;47.830;12.972;2022-10-30T11:50:16;7.83;;;3.37;;
10389;SDS011;5241;47.830;12.972;2022-10-30T11:52:47;17.07;;;4.67;;
10389;SDS011;5241;47.830;12.972;2022-10-30T11:55:19;13.07;;;4.07;;
10389;SDS011;5241;47.830;12.972;2022-10-30T11:57:57;13.23;;;3.77;;
10389;SDS011;5241;47.830;12.972;2022-10-30T12:00:24;10.63;;;3.30;;
10389;SDS011;5241;47.830;12.972;2022-10-30T12:02:52;9.70;;;3.87;;
10389;SDS011;5241;47.830;12.972;2022-10-30T12:07:52;14.43;;;3.33;;
10389;SDS011;5241;47.830;12.972;2022-10-30T12:10:44;11.00;;;3.60;;
10389;SDS011;5241;47.830;12.972;2022-10-30T12:13:17;11.77;;;3.53;;
10389;SDS011;5241;47.830;12.972;2022-10-30T12:15:44;11.03;;;3.37;;
10389;SDS011;5241;47.830;12.972;2022-10-30T12:18:17;11.27;;;4.07;;
10389;SDS011;5241;47.830;12.972;2022-10-30T12:20:47;10.60;;;3.87;;
10389;SDS011;5241;47.830;12.972;2022-10-30T12:23:20;12.03;;;3.90;;
10389;SDS011;5241;47.830;12.972;2022-10-30T12:25:50;9.20;;;3.37;;
10389;SDS011;5241;47.830;12.972;2022-10-30T12:28:22;12.67;;;3.70;;
10389;SDS011;5241;47.830;12.972;2022-10-30T12:30:54;11.57;;;3.70;;
10389;SDS011;5241;47.830;12.972;2022-10-30T12:33:41;8.33;;;3.00;;
10389;SDS011;5241;47.830;12.972;2022-10-30T12:36:25;9.30;;;3.70;;
10389;SDS011;5241;47.830;12.972;2022-10-30T12:38:56;9.27;;;3.60;;
10389;SDS011;5241;47.830;12.972;2022-10-30T12:41:30;13.20;;;3.87;;
10389;SDS011;5241;47.830;12.972;2022-10-30T12:44:14;13.07;;;3.90;;
10389;SDS011;5241;47.830;12.972;2022-10-30T12:49:51;11.97;;;3.57;;
10389;SDS011;5241;47.830;12.972;2022-10-30T12:52:28;7.70;;;3.30;;
10389;SDS011;5241;47.830;12.972;2022-10-30T12:57:30;13.03;;;4.03;;
10389;SDS011;5241;47.830;12.972;2022-10-30T13:00:10;10.50;;;3.17;;
10389;SDS011;5241;47.830;12.972;2022-10-30T13:05:25;13.57;;;3.30;;
10389;SDS011;5241;47.830;12.972;2022-10-30T13:13:22;12.53;;;3.10;;
10389;SDS011;5241;47.830;12.972;2022-10-30T13:15:53;12.10;;;4.13;;
10389;SDS011;5241;47.830;12.972;2022-10-30T13:18:22;13.07;;;3.87;;
10389;SDS011;5241;47.830;12.972;2022-10-30T13:23:43;10.60;;;3.43;;
10389;SDS011;5241;47.830;12.972;2022-10-30T13:29:06;10.43;;;3.20;;
10389;SDS011;5241;47.830;12.972;2022-10-30T13:34:28;10.63;;;3.63;;
10389;SDS011;5241;47.830;12.972;2022-10-30T13:42:31;11.60;;;3.73;;
10389;SDS011;5241;47.830;12.972;2022-10-30T13:45:54;13.20;;;3.67;;
10389;SDS011;5241;47.830;12.972;2022-10-30T13:48:09;9.30;;;3.30;;
10389;SDS011;5241;47.830;12.972;2022-10-30T13:53:24;6.93;;;3.10;;
10389;SDS011;5241;47.830;12.972;2022-10-30T13:55:52;8.90;;;3.47;;
10389;SDS011;5241;47.830;12.972;2022-10-30T14:03:41;7.27;;;3.13;;
10389;SDS011;5241;47.830;12.972;2022-10-30T14:06:46;9.70;;;3.67;;
10389;SDS011;5241;47.830;12.972;2022-10-30T14:09:29;11.97;;;3.87;;
10389;SDS011;5241;47.830;12.972;2022-10-30T14:15:05;10.57;;;3.37;;
10389;SDS011;5241;47.830;12.972;2022-10-30T14:17:56;10.63;;;3.60;;
10389;SDS011;5241;47.830;12.972;2022-10-30T14:20:37;12.27;;;3.77;;
10389;SDS011;5241;47.830;12.972;2022-10-30T14:23:07;10.90;;;3.90;;
10389;SDS011;5241;47.830;12.972;2022-10-30T14:25:38;10.83;;;3.60;;
10389;SDS011;5241;47.830;12.972;2022-10-30T14:28:04;10.13;;;4.07;;
10389;SDS011;5241;47.830;12.972;2022-10-30T14:30:42;8.40;;;3.47;;
10389;SDS011;5241;47.830;12.972;2022-10-30T14:33:09;12.17;;;3.50;;
10389;SDS011;5241;47.830;12.972;2022-10-30T14:47:26;10.67;;;4.03;;
10389;SDS011;5241;47.830;12.972;2022-10-30T14:52:59;8.70;;;3.10;;
10389;SDS011;5241;47.830;12.972;2022-10-30T14:55:49;8.17;;;3.50;;
10389;SDS011;5241;47.830;12.972;2022-10-30T14:58:23;9.93;;;3.83;;
10389;SDS011;5241;47.830;12.972;2022-10-30T15:00:52;10.33;;;3.30;;
10389;SDS011;5241;47.830;12.972;2022-10-30T15:14:52;11.60;;;3.50;;
10389;SDS011;5241;47.830;12.972;2022-10-30T15:17:35;10.23;;;3.40;;
10389;SDS011;5241;47.830;12.972;2022-10-30T15:20:05;9.93;;;3.40;;
10389;SDS011;5241;47.830;12.972;2022-10-30T15:22:38;11.07;;;4.00;;
10389;SDS011;5241;47.830;12.972;2022-10-30T15:25:05;11.40;;;3.40;;
10389;SDS011;5241;47.830;12.972;2022-10-30T15:27:40;17.43;;;4.27;;
10389;SDS011;5241;47.830;12.972;2022-10-30T15:30:16;8.43;;;3.43;;
10389;SDS011;5241;47.830;12.972;2022-10-30T15:32:43;8.47;;;3.67;;
10389;SDS011;5241;47.830;12.972;2022-10-30T15:35:12;8.60;;;3.80;;
10389;SDS011;5241;47.830;12.972;2022-10-30T15:37:54;11.00;;;3.90;;
10389;SDS011;5241;47.830;12.972;2022-10-30T15:40:28;12.37;;;3.77;;
10389;SDS011;5241;47.830;12.972;2022-10-30T15:42:55;9.87;;;3.83;;
10389;SDS011;5241;47.830;12.972;2022-10-30T15:45:33;12.43;;;4.40;;
10389;SDS011;5241;47.830;12.972;2022-10-30T15:50:31;10.43;;;4.57;;
10389;SDS011;5241;47.830;12.972;2022-10-30T15:52:58;11.83;;;4.10;;
10389;SDS011;5241;47.830;12.972;2022-10-30T15:55:25;8.17;;;3.70;;
10389;SDS011;5241;47.830;12.972;2022-10-30T15:58:02;10.07;;;4.03;;
10389;SDS011;5241;47.830;12.972;2022-10-30T16:00:30;6.33;;;3.60;;
10389;SDS011;5241;47.830;12.972;2022-10-30T16:03:02;13.70;;;3.57;;
10389;SDS011;5241;47.830;12.972;2022-10-30T16:05:28;8.87;;;3.70;;
10389;SDS011;5241;47.830;12.972;2022-10-30T16:07:59;15.97;;;4.70;;
10389;SDS011;5241;47.830;12.972;2022-10-30T16:10:27;10.80;;;4.83;;
10389;SDS011;5241;47.830;12.972;2022-10-30T16:13:00;8.50;;;4.20;;
10389;SDS011;5241;47.830;12.972;2022-10-30T16:15:31;8.27;;;4.23;;
10389;SDS011;5241;47.830;12.972;2022-10-30T16:20:31;13.93;;;4.43;;
10389;SDS011;5241;47.830;12.972;2022-10-30T16:22:59;10.60;;;4.73;;
10389;SDS011;5241;47.830;12.972;2022-10-30T16:25:25;10.97;;;5.00;;
10389;SDS011;5241;47.830;12.972;2022-10-30T16:27:51;9.70;;;4.53;;
10389;SDS011;5241;47.830;12.972;2022-10-30T16:30:16;12.23;;;4.00;;
10389;SDS011;5241;47.830;12.972;2022-10-30T16:32:43;10.20;;;4.90;;
10389;SDS011;5241;47.830;12.972;2022-10-30T16:35:16;10.80;;;5.07;;
10389;SDS011;5241;47.830;12.972;2022-10-30T16:37:45;11.30;;;5.37;;
10389;SDS011;5241;47.830;12.972;2022-10-30T16:40:12;12.53;;;5.00;;
10389;SDS011;5241;47.830;12.972;2022-10-30T16:42:51;10.30;;;5.37;;
10389;SDS011;5241;47.830;12.972;2022-10-30T16:45:44;10.07;;;5.77;;
10389;SDS011;5241;47.830;12.972;2022-10-30T16:48:29;11.90;;;6.23;;
10389;SDS011;5241;47.830;12.972;2022-10-30T16:51:02;9.97;;;6.33;;
10389;SDS011;5241;47.830;12.972;2022-10-30T16:53:28;14.27;;;6.70;;
10389;SDS011;5241;47.830;12.972;2022-10-30T16:55:55;14.43;;;7.70;;
10389;SDS011;5241;47.830;12.972;2022-10-30T16:58:26;15.70;;;8.80;;
10389;SDS011;5241;47.830;12.972;2022-10-30T17:00:55;17.27;;;9.70;;
10389;SDS011;5241;47.830;12.972;2022-10-30T17:03:32;15.57;;;7.87;;
10389;SDS011;5241;47.830;12.972;2022-10-30T17:06:05;14.40;;;7.93;;
10389;SDS011;5241;47.830;12.972;2022-10-30T17:08:48;15.13;;;8.00;;
10389;SDS011;5241;47.830;12.972;2022-10-30T17:11:17;12.47;;;7.63;;